Time,TemperatureF,DewpointF,PressureIn,WindDirection,WindDirectionDegrees,WindSpeedMPH,WindSpeedGustMPH,Humidity,HourlyPrecipIn,Conditions,Clouds,dailyrainin,SoftwareType,DateUTC
2013-05-14 00:02:00,42.0,40.0,29.91,SSW,207,0.0,0.0,91,0.00,,,0.00,weatherlink.com 1.10,2013-05-14 04:02:00,
2013-05-14 00:17:00,41.9,40.0,29.92,SSW,207,0.0,0.0,92,0.00,,,0.00,weatherlink.com 1.10,2013-05-14 04:17:00,
2013-05-14 00:32:00,41.8,40.0,29.92,SSW,207,0.0,0.0,93,0.00,,,0.00,weatherlink.com 1.10,2013-05-14 04:32:00,
2013-05-14 00:47:00,41.9,40.0,29.92,SSW,207,0.0,0.0,93,0.00,,,0.00,weatherlink.com 1.10,2013-05-14 04:47:00,
2013-05-14 01:02:00,42.7,41.0,29.90,SW,233,0.0,1.0,92,0.00,,,0.00,weatherlink.com 1.10,2013-05-14 05:02:00,
2013-05-14 01:17:00,43.5,40.0,29.90,South,177,2.0,6.0,86,0.00,,,0.00,weatherlink.com 1.10,2013-05-14 05:17:00,
2013-05-14 01:32:00,44.7,38.0,29.91,South,187,0.0,4.0,76,0.00,,,0.00,weatherlink.com 1.10,2013-05-14 05:32:00,
2013-05-14 01:47:00,44.3,37.0,29.91,WSW,248,0.0,5.0,76,0.00,,,0.00,weatherlink.com 1.10,2013-05-14 05:47:00,
2013-05-14 02:02:00,44.1,37.0,29.92,SSW,207,0.0,4.0,75,0.00,,,0.00,weatherlink.com 1.10,2013-05-14 06:02:00,
2013-05-14 02:17:00,43.9,36.0,29.91,WSW,240,1.0,4.0,74,0.00,,,0.00,weatherlink.com 1.10,2013-05-14 06:17:00,
2013-05-14 02:32:00,43.6,36.0,29.91,South,188,1.0,4.0,74,0.00,,,0.00,weatherlink.com 1.10,2013-05-14 06:32:00,
2013-05-14 02:47:00,44.0,35.0,29.92,NNW,348,0.0,3.0,72,0.00,,,0.00,weatherlink.com 1.10,2013-05-14 06:47:00,
2013-05-14 03:02:00,43.6,35.0,29.92,NW,311,0.0,4.0,73,0.00,,,0.00,weatherlink.com 1.10,2013-05-14 07:02:00,
2013-05-14 03:17:00,42.7,36.0,29.92,SW,216,0.0,1.0,77,0.00,,,0.00,weatherlink.com 1.10,2013-05-14 07:17:00,
2013-05-14 03:33:00,42.2,36.0,29.91,SW,216,0.0,1.0,79,0.00,,,0.00,weatherlink.com 1.10,2013-05-14 07:33:00,
2013-05-14 03:48:00,42.4,36.0,29.91,SSW,205,0.0,2.0,78,0.00,,,0.00,weatherlink.com 1.10,2013-05-14 07:48:00,
2013-05-14 04:03:00,42.1,35.0,29.91,SSW,205,0.0,1.0,77,0.00,,,0.00,weatherlink.com 1.10,2013-05-14 08:03:00,
2013-05-14 04:18:00,42.5,35.0,29.91,West,263,0.0,2.0,75,0.00,,,0.00,weatherlink.com 1.10,2013-05-14 08:18:00,
2013-05-14 04:33:00,42.3,36.0,29.92,SSW,202,0.0,2.0,77,0.00,,,0.00,weatherlink.com 1.10,2013-05-14 08:33:00,
2013-05-14 04:48:00,42.6,36.0,29.91,North,5,0.0,3.0,76,0.00,,,0.00,weatherlink.com 1.10,2013-05-14 08:48:00,
2013-05-14 05:03:00,43.1,35.0,29.91,NNW,337,0.0,6.0,73,0.00,,,0.00,weatherlink.com 1.10,2013-05-14 09:03:00,
2013-05-14 05:18:00,42.9,34.0,29.91,WSW,257,0.0,2.0,72,0.00,,,0.00,weatherlink.com 1.10,2013-05-14 09:18:00,
2013-05-14 05:33:00,42.9,34.0,29.92,SW,234,0.0,2.0,72,0.00,,,0.00,weatherlink.com 1.10,2013-05-14 09:33:00,
2013-05-14 05:48:00,42.8,34.0,29.92,WSW,247,2.0,3.0,72,0.00,,,0.00,weatherlink.com 1.10,2013-05-14 09:48:00,
2013-05-14 06:03:00,43.2,35.0,29.92,WNW,283,0.0,0.0,74,0.00,,,0.00,weatherlink.com 1.10,2013-05-14 10:03:00,
2013-05-14 06:18:00,44.1,36.0,29.92,WNW,286,0.0,7.0,72,0.00,,,0.00,weatherlink.com 1.10,2013-05-14 10:18:00,
2013-05-14 06:33:00,44.6,36.0,29.92,NNW,346,3.0,8.0,73,0.00,,,0.00,weatherlink.com 1.10,2013-05-14 10:33:00,
2013-05-14 06:48:00,44.5,36.0,29.91,WNW,298,0.0,5.0,71,0.00,,,0.00,weatherlink.com 1.10,2013-05-14 10:48:00,
2013-05-14 07:03:00,44.8,36.0,29.91,NW,324,3.0,7.0,71,0.00,,,0.00,weatherlink.com 1.10,2013-05-14 11:03:00,
2013-05-14 07:18:00,45.8,37.0,29.92,NNW,333,3.0,9.0,70,0.00,,,0.00,weatherlink.com 1.10,2013-05-14 11:18:00,
2013-05-14 07:33:00,46.7,36.0,29.92,NNW,334,5.0,12.0,67,0.00,,,0.00,weatherlink.com 1.10,2013-05-14 11:33:00,
2013-05-14 07:48:00,46.9,35.0,29.92,NW,309,1.0,14.0,64,0.00,,,0.00,weatherlink.com 1.10,2013-05-14 11:48:00,
2013-05-14 08:03:00,47.4,36.0,29.92,NNW,331,5.0,11.0,65,0.00,,,0.00,weatherlink.com 1.10,2013-05-14 12:03:00,
2013-05-14 08:18:00,47.7,36.0,29.93,NNW,331,7.0,13.0,63,0.00,,,0.00,weatherlink.com 1.10,2013-05-14 12:18:00,
2013-05-14 08:33:00,47.9,37.0,29.92,NW,305,1.0,13.0,65,0.00,,,0.00,weatherlink.com 1.10,2013-05-14 12:33:00,
2013-05-14 08:48:00,48.9,34.0,29.92,NNW,329,9.0,12.0,58,0.00,,,0.00,weatherlink.com 1.10,2013-05-14 12:48:00,
2013-05-14 09:03:00,48.9,36.0,29.91,NW,325,10.0,14.0,61,0.00,,,0.00,weatherlink.com 1.10,2013-05-14 13:03:00,
2013-05-14 09:18:00,48.9,38.0,29.91,NNW,340,8.0,13.0,65,0.00,,,0.00,weatherlink.com 1.10,2013-05-14 13:18:00,
2013-05-14 09:33:00,49.5,37.0,29.90,NNW,342,9.0,11.0,62,0.00,,,0.00,weatherlink.com 1.10,2013-05-14 13:33:00,
2013-05-14 09:48:00,50.8,37.0,29.90,North,350,10.0,12.0,60,0.00,,,0.00,weatherlink.com 1.10,2013-05-14 13:48:00,
2013-05-14 10:04:00,51.3,38.0,29.89,NNW,344,6.0,12.0,60,0.00,,,0.00,weatherlink.com 1.10,2013-05-14 14:04:00,
2013-05-14 10:19:00,51.8,39.0,29.88,North,349,9.0,11.0,61,0.00,,,0.00,weatherlink.com 1.10,2013-05-14 14:19:00,
2013-05-14 10:34:00,51.7,38.0,29.88,North,360,6.0,8.0,59,0.00,,,0.00,weatherlink.com 1.10,2013-05-14 14:34:00,
2013-05-14 10:49:00,51.2,36.0,29.88,NNE,12,5.0,8.0,57,0.00,,,0.00,weatherlink.com 1.10,2013-05-14 14:49:00,
2013-05-14 11:04:00,51.7,36.0,29.88,North,360,5.0,8.0,56,0.00,,,0.00,weatherlink.com 1.10,2013-05-14 15:04:00,
2013-05-14 11:19:00,52.3,35.0,29.88,NE,34,5.0,6.0,52,0.00,,,0.00,weatherlink.com 1.10,2013-05-14 15:19:00,
2013-05-14 11:34:00,52.5,35.0,29.88,NNE,24,3.0,6.0,52,0.00,,,0.00,weatherlink.com 1.10,2013-05-14 15:34:00,
2013-05-14 11:49:00,53.0,35.0,29.88,NNE,26,3.0,5.0,51,0.00,,,0.00,weatherlink.com 1.10,2013-05-14 15:49:00,
2013-05-14 12:04:00,53.5,36.0,29.88,North,10,0.0,3.0,52,0.00,,,0.00,weatherlink.com 1.10,2013-05-14 16:04:00,
2013-05-14 12:19:00,53.8,36.0,29.87,NE,41,0.0,3.0,51,0.00,,,0.00,weatherlink.com 1.10,2013-05-14 16:19:00,
2013-05-14 12:34:00,54.0,34.0,29.88,East,84,3.0,3.0,48,0.00,,,0.00,weatherlink.com 1.10,2013-05-14 16:34:00,
2013-05-14 12:49:00,53.0,35.0,29.88,NNE,28,1.0,4.0,51,0.00,,,0.00,weatherlink.com 1.10,2013-05-14 16:49:00,
2013-05-14 13:04:00,53.3,36.0,29.88,NE,48,6.0,7.0,52,0.00,,,0.00,weatherlink.com 1.10,2013-05-14 17:04:00,
2013-05-14 13:19:00,54.4,34.0,29.87,East,80,1.0,7.0,47,0.00,,,0.00,weatherlink.com 1.10,2013-05-14 17:19:00,
2013-05-14 13:49:00,53.6,36.0,29.87,NE,53,3.0,7.0,51,0.00,,,0.00,weatherlink.com 1.10,2013-05-14 17:49:00,
2013-05-14 14:04:00,54.3,36.0,29.86,NE,46,3.0,6.0,50,0.00,,,0.00,weatherlink.com 1.10,2013-05-14 18:04:00,
2013-05-14 14:19:00,54.0,36.0,29.86,NE,52,0.0,5.0,51,0.00,,,0.00,weatherlink.com 1.10,2013-05-14 18:19:00,
2013-05-14 14:34:00,54.3,36.0,29.86,West,281,0.0,2.0,51,0.00,,,0.00,weatherlink.com 1.10,2013-05-14 18:34:00,
2013-05-14 14:49:00,53.9,33.0,29.85,NE,47,0.0,4.0,46,0.00,,,0.00,weatherlink.com 1.10,2013-05-14 18:49:00,
2013-05-14 15:04:00,53.6,36.0,29.85,ENE,57,0.0,3.0,51,0.00,,,0.00,weatherlink.com 1.10,2013-05-14 19:04:00,
2013-05-14 15:19:00,53.4,34.0,29.85,ENE,57,0.0,3.0,49,0.00,,,0.00,weatherlink.com 1.10,2013-05-14 19:19:00,
2013-05-14 15:34:00,53.1,36.0,29.85,ENE,57,0.0,0.0,52,0.00,,,0.00,weatherlink.com 1.10,2013-05-14 19:34:00,
2013-05-14 15:49:00,52.7,34.0,29.85,ENE,57,0.0,0.0,50,0.00,,,0.00,weatherlink.com 1.10,2013-05-14 19:49:00,
2013-05-14 16:04:00,52.9,37.0,29.86,North,355,2.0,4.0,55,0.00,,,0.00,weatherlink.com 1.10,2013-05-14 20:04:00,
2013-05-14 16:19:00,52.5,37.0,29.86,NE,38,0.0,6.0,57,0.00,,,0.00,weatherlink.com 1.10,2013-05-14 20:19:00,
2013-05-14 16:34:00,53.1,37.0,29.86,NW,322,1.0,8.0,55,0.00,,,0.00,weatherlink.com 1.10,2013-05-14 20:34:00,
2013-05-14 16:49:00,52.9,36.0,29.86,NNW,343,1.0,7.0,54,0.00,,,0.00,weatherlink.com 1.10,2013-05-14 20:49:00,
2013-05-14 17:04:00,52.7,36.0,29.86,NW,305,1.0,4.0,53,0.00,,,0.00,weatherlink.com 1.10,2013-05-14 21:04:00,
2013-05-14 17:19:00,52.6,36.0,29.86,WNW,303,0.0,4.0,53,0.00,,,0.00,weatherlink.com 1.10,2013-05-14 21:19:00,
2013-05-14 17:34:00,52.4,36.0,29.86,WSW,250,2.0,5.0,53,0.00,,,0.00,weatherlink.com 1.10,2013-05-14 21:34:00,
2013-05-14 17:49:00,52.3,36.0,29.85,North,5,0.0,6.0,54,0.00,,,0.00,weatherlink.com 1.10,2013-05-14 21:49:00,
2013-05-14 18:04:00,52.2,35.0,29.84,NW,321,1.0,7.0,53,0.00,,,0.00,weatherlink.com 1.10,2013-05-14 22:04:00,
2013-05-14 18:19:00,52.0,35.0,29.84,West,268,0.0,3.0,52,0.00,,,0.00,weatherlink.com 1.10,2013-05-14 22:19:00,
2013-05-14 18:34:00,52.2,35.0,29.85,NE,42,0.0,5.0,52,0.00,,,0.00,weatherlink.com 1.10,2013-05-14 22:34:00,
2013-05-14 18:49:00,52.2,35.0,29.85,West,281,0.0,3.0,52,0.00,,,0.00,weatherlink.com 1.10,2013-05-14 22:49:00,
2013-05-14 19:04:00,52.2,35.0,29.86,NNW,327,0.0,5.0,53,0.00,,,0.00,weatherlink.com 1.10,2013-05-14 23:04:00,
2013-05-14 19:19:00,51.9,36.0,29.87,SSW,200,0.0,3.0,54,0.00,,,0.00,weatherlink.com 1.10,2013-05-14 23:19:00,
2013-05-14 19:34:00,50.5,36.0,29.87,WSW,245,0.0,2.0,58,0.00,,,0.00,weatherlink.com 1.10,2013-05-14 23:34:00,
2013-05-14 19:49:00,50.1,34.0,29.87,WSW,245,0.0,4.0,54,0.00,,,0.00,weatherlink.com 1.10,2013-05-14 23:49:00,
2013-05-14 20:04:00,49.1,35.0,29.87,South,188,0.0,3.0,59,0.00,,,0.00,weatherlink.com 1.10,2013-05-15 00:04:00,
2013-05-14 20:19:00,47.8,35.0,29.88,SSW,211,0.0,3.0,62,0.00,,,0.00,weatherlink.com 1.10,2013-05-15 00:19:00,
2013-05-14 20:34:00,46.9,35.0,29.88,WSW,255,0.0,2.0,64,0.00,,,0.00,weatherlink.com 1.10,2013-05-15 00:34:00,
2013-05-14 20:49:00,46.3,35.0,29.88,SSE,161,0.0,3.0,66,0.00,,,0.00,weatherlink.com 1.10,2013-05-15 00:49:00,
2013-05-14 21:04:00,46.1,35.0,29.89,West,265,1.0,2.0,65,0.00,,,0.00,weatherlink.com 1.10,2013-05-15 01:04:00,
2013-05-14 21:19:00,46.1,34.0,29.89,West,266,0.0,5.0,64,0.00,,,0.00,weatherlink.com 1.10,2013-05-15 01:19:00,
2013-05-14 21:34:00,46.0,34.0,29.89,WSW,242,0.0,3.0,64,0.00,,,0.00,weatherlink.com 1.10,2013-05-15 01:34:00,
2013-05-14 21:49:00,45.1,35.0,29.90,SW,235,1.0,2.0,67,0.00,,,0.00,weatherlink.com 1.10,2013-05-15 01:49:00,
2013-05-14 22:04:00,44.4,35.0,29.90,SW,228,0.0,3.0,69,0.00,,,0.00,weatherlink.com 1.10,2013-05-15 02:04:00,
2013-05-14 22:19:00,44.2,35.0,29.90,SW,226,1.0,2.0,70,0.00,,,0.00,weatherlink.com 1.10,2013-05-15 02:19:00,
2013-05-14 22:34:00,42.7,35.0,29.90,SW,226,0.0,1.0,75,0.00,,,0.00,weatherlink.com 1.10,2013-05-15 02:34:00,
2013-05-14 22:49:00,42.3,35.0,29.89,SW,226,0.0,2.0,76,0.00,,,0.00,weatherlink.com 1.10,2013-05-15 02:49:00,
2013-05-14 23:04:00,42.7,35.0,29.89,SW,226,0.0,1.0,74,0.00,,,0.00,weatherlink.com 1.10,2013-05-15 03:04:00,
2013-05-14 23:19:00,43.3,35.0,29.89,West,275,0.0,2.0,73,0.00,,,0.00,weatherlink.com 1.10,2013-05-15 03:19:00,
2013-05-14 23:34:00,42.5,35.0,29.89,West,275,0.0,0.0,74,0.00,,,0.00,weatherlink.com 1.10,2013-05-15 03:34:00,
2013-05-14 23:49:00,41.5,35.0,29.90,West,275,0.0,0.0,78,0.00,,,0.00,weatherlink.com 1.10,2013-05-15 03:49:00,